Time;durP1;ratioP1;P1;durP2;ratioP2;P2;SDS_P1;SDS_P2;PMS_P1;PMS_P2;Temp;Humidity;BMP_temperature;BMP_pressure;BME280_temperature;BME280_humidity;BME280_pressure;Samples;Min_cycle;Max_cycle;Signal;HPM_P1;HPM_P2
2022/09/03 00:01:51;;;;;;;;;10.00;9.33;;;;;22.71;100.00;100615.69;5113624;27;47713;-84
2022/09/03 00:04:30;;;;;;;;;10.33;9.00;;;;;22.69;100.00;100611.28;5078310;27;45541;-80
2022/09/03 00:07:22;;;;;;;;;11.00;9.33;;;;;22.72;100.00;100613.88;5088081;27;45460;-81
2022/09/03 00:09:56;;;;;;;;;10.00;10.00;;;;;22.71;100.00;100612.13;5059672;28;45380;-85
2022/09/03 00:12:27;;;;;;;;;9.67;9.33;;;;;22.71;100.00;100604.06;5059239;28;47738;-82
2022/09/03 00:15:08;;;;;;;;;9.33;9.33;;;;;22.73;100.00;100612.91;5059131;28;45410;-83
2022/09/03 00:17:41;;;;;;;;;9.67;9.67;;;;;22.73;100.00;100612.91;5059526;28;45487;-81
2022/09/03 00:20:16;;;;;;;;;11.33;9.67;;;;;22.70;100.00;100611.25;5095356;27;45467;-84
2022/09/03 00:22:48;;;;;;;;;8.00;8.00;;;;;22.70;100.00;100610.38;5079196;27;48455;-81
2022/09/03 00:25:18;;;;;;;;;10.00;10.00;;;;;22.71;100.00;100606.75;5096392;27;45493;-82
2022/09/03 00:27:49;;;;;;;;;9.00;9.00;;;;;22.72;100.00;100619.25;5092342;27;45511;-82
2022/09/03 00:30:16;;;;;;;;;8.33;8.00;;;;;22.69;100.00;100614.88;5096729;27;45414;-82
2022/09/03 00:32:47;;;;;;;;;9.67;9.67;;;;;22.67;100.00;100610.50;5095281;27;46355;-81
2022/09/03 00:35:23;;;;;;;;;10.00;10.00;;;;;22.65;100.00;100605.19;5096521;27;45571;-82
2022/09/03 00:37:51;;;;;;;;;10.00;8.00;;;;;22.65;100.00;100615.94;5096566;27;45421;-81
2022/09/03 00:40:40;;;;;;;;;5.00;3.00;;;;;22.65;100.00;100612.38;5095969;27;45659;-85
2022/09/03 00:43:31;;;;;;;;;10.33;10.33;;;;;22.62;100.00;100610.69;5079130;27;45457;-84
2022/09/03 00:46:32;;;;;;;;;7.67;7.67;;;;;22.60;100.00;100609.00;5113404;27;45467;-80
2022/09/03 00:49:30;;;;;;;;;8.00;8.00;;;;;22.58;100.00;100608.19;5086182;27;45476;-81
2022/09/03 00:52:05;;;;;;;;;8.33;8.33;;;;;22.56;100.00;100605.56;5096450;27;45278;-80
2022/09/03 00:54:49;;;;;;;;;9.67;8.67;;;;;22.55;100.00;100608.34;5112718;27;48592;-80
2022/09/03 00:57:29;;;;;;;;;10.00;10.00;;;;;22.54;100.00;100609.28;5078744;27;46203;-83
2022/09/03 01:00:14;;;;;;;;;8.33;8.33;;;;;22.51;100.00;100612.97;5112956;27;45361;-82
2022/09/03 01:02:48;;;;;;;;;8.67;8.33;;;;;22.51;100.00;100612.09;5058857;28;45633;-82
2022/09/03 01:05:40;;;;;;;;;9.67;9.67;;;;;22.49;100.00;100610.34;5075652;28;47751;-84
2022/09/03 01:08:25;;;;;;;;;9.00;9.00;;;;;22.51;100.00;100614.78;5093778;27;45381;-84
2022/09/03 01:11:34;;;;;;;;;7.33;7.33;;;;;22.47;100.00;100611.31;5113210;27;45313;-82
2022/09/03 01:14:14;;;;;;;;;8.00;7.00;;;;;22.47;100.00;100612.19;5090090;27;45638;-81
2022/09/03 01:17:02;;;;;;;;;5.00;4.67;;;;;22.47;100.00;100620.28;5097077;27;45643;-82
2022/09/03 01:20:05;;;;;;;;;7.00;7.00;;;;;22.49;100.00;100615.72;5112664;27;45523;-82
2022/09/03 01:22:30;;;;;;;;;8.33;7.00;;;;;22.50;100.00;100619.28;5096189;27;45492;-84
2022/09/03 01:25:10;;;;;;;;;7.67;7.00;;;;;22.51;100.00;100617.47;5097207;27;45633;-83
2022/09/03 01:28:14;;;;;;;;;8.00;7.00;;;;;22.52;100.00;100616.53;5077906;27;48616;-83
2022/09/03 01:30:46;;;;;;;;;7.00;7.00;;;;;22.53;100.00;100613.78;5056500;27;46162;-82
2022/09/03 01:33:21;;;;;;;;;9.33;7.00;;;;;22.54;100.00;100615.53;5095692;27;45404;-83
2022/09/03 01:35:49;;;;;;;;;6.00;6.00;;;;;22.56;100.00;100621.72;5078776;27;45532;-85
2022/09/03 01:38:25;;;;;;;;;9.67;8.00;;;;;22.55;100.00;100614.59;5078254;27;47427;-82
2022/09/03 01:44:44;;;;;;;;;6.00;6.00;;;;;22.56;100.00;100612.78;5098514;27;45407;-81
2022/09/03 01:47:25;;;;;;;;;8.00;8.00;;;;;22.55;100.00;100616.41;5112278;27;45492;-81
2022/09/03 01:50:33;;;;;;;;;7.00;7.00;;;;;22.54;100.00;100612.84;5098231;27;47933;-82
2022/09/03 01:53:38;;;;;;;;;7.33;7.33;;;;;22.52;100.00;100606.63;5098837;27;45362;-83
2022/09/03 01:56:16;;;;;;;;;9.33;7.67;;;;;22.52;100.00;100600.38;5116037;27;45337;-81
2022/09/03 01:58:48;;;;;;;;;7.00;6.00;;;;;22.49;100.00;100604.97;5081770;27;45327;-82
2022/09/03 02:01:44;;;;;;;;;7.33;7.33;;;;;22.48;100.00;100595.13;5081310;27;48037;-83
2022/09/03 02:04:18;;;;;;;;;5.67;5.67;;;;;22.46;100.00;100601.50;5046208;27;45525;-81
2022/09/03 02:06:47;;;;;;;;;8.33;7.00;;;;;22.46;100.00;100604.19;5099017;27;45315;-81
2022/09/03 02:09:13;;;;;;;;;7.67;7.67;;;;;22.45;100.00;100594.38;5082605;27;45451;-81
2022/09/03 02:11:40;;;;;;;;;6.67;6.67;;;;;22.42;100.00;100591.81;5098551;27;46298;-86
2022/09/03 02:14:05;;;;;;;;;8.00;7.00;;;;;22.42;100.00;100602.56;5081357;27;45330;-82
2022/09/03 02:16:32;;;;;;;;;9.00;7.00;;;;;22.42;100.00;100607.94;5081283;27;51854;-82
2022/09/03 02:19:06;;;;;;;;;6.00;6.00;;;;;22.41;100.00;100601.69;5079435;27;45212;-81
2022/09/03 02:21:35;;;;;;;;;9.00;7.00;;;;;22.38;100.00;100607.22;5080855;27;48652;-82
2022/09/03 02:24:02;;;;;;;;;7.00;7.00;;;;;22.39;100.00;100605.41;5098319;27;45315;-83
2022/09/03 02:26:28;;;;;;;;;6.67;6.67;;;;;22.37;100.00;100608.16;5090797;27;45477;-84
2022/09/03 02:28:54;;;;;;;;;7.67;6.67;;;;;22.36;100.00;100609.09;5061024;27;45573;-85
2022/09/03 02:31:20;;;;;;;;;7.33;7.33;;;;;22.34;100.00;100604.72;5063913;28;48824;-80
2022/09/03 02:33:47;;;;;;;;;7.00;7.00;;;;;22.33;100.00;100608.34;5077668;27;45455;-81
2022/09/03 02:36:14;;;;;;;;;6.67;6.67;;;;;22.30;100.00;100603.97;5060825;28;45495;-82
2022/09/03 02:38:42;;;;;;;;;8.67;7.33;;;;;22.29;100.00;100609.41;5081055;27;45378;-80
2022/09/03 02:41:07;;;;;;;;;8.00;7.33;;;;;22.29;100.00;100617.47;5080934;27;48527;-82
2022/09/03 02:43:41;;;;;;;;;7.00;7.00;;;;;22.26;100.00;100618.47;5097779;27;45404;-82
2022/09/03 02:46:11;;;;;;;;;6.67;6.33;;;;;22.26;100.00;100625.66;5080599;27;45331;-82
2022/09/03 02:48:36;;;;;;;;;7.33;7.33;;;;;22.25;100.00;100623.91;5068007;28;45623;-83
2022/09/03 02:51:02;;;;;;;;;6.33;6.33;;;;;22.22;100.00;100620.44;5094357;27;47304;-83
2022/09/03 02:53:27;;;;;;;;;10.67;8.33;;;;;22.25;100.00;100624.78;5060436;27;45430;-79
2022/09/03 02:55:58;;;;;;;;;10.00;8.33;;;;;22.21;100.00;100615.09;5060572;28;45438;-81
2022/09/03 02:58:23;;;;;;;;;7.67;7.67;;;;;22.21;100.00;100623.16;5077703;28;45326;-81
2022/09/03 03:00:49;;;;;;;;;7.67;6.67;;;;;22.20;100.00;100619.59;5085020;27;57018;-81
2022/09/03 03:03:14;;;;;;;;;6.67;6.67;;;;;22.19;100.00;100614.28;5078533;27;45235;-82
2022/09/03 03:05:47;;;;;;;;;7.00;7.00;;;;;22.19;100.00;100625.91;5060443;28;46690;-83
2022/09/03 03:08:16;;;;;;;;;7.00;7.00;;;;;22.16;100.00;100620.69;5060281;28;45257;-82
2022/09/03 03:10:43;;;;;;;;;7.00;7.00;;;;;22.14;100.00;100618.97;5060760;28;48001;-81
2022/09/03 03:13:09;;;;;;;;;7.67;7.67;;;;;22.10;100.00;100614.63;5078871;27;45510;-81
2022/09/03 03:15:35;;;;;;;;;8.00;8.00;;;;;22.14;100.00;100630.59;5080371;27;45391;-81
2022/09/03 03:18:00;;;;;;;;;7.00;7.00;;;;;22.12;100.00;100624.41;5080839;27;45503;-81
2022/09/03 03:20:25;;;;;;;;;8.00;8.00;;;;;22.13;100.00;100620.78;5096961;27;47312;-82
2022/09/03 03:22:51;;;;;;;;;6.67;6.67;;;;;22.12;100.00;100610.97;5080053;27;57990;-81
2022/09/03 03:25:16;;;;;;;;;6.33;6.33;;;;;22.11;100.00;100608.34;5079917;27;50533;-83
2022/09/03 03:27:42;;;;;;;;;9.33;8.00;;;;;22.12;100.00;100610.97;5080424;27;45427;-84
2022/09/03 03:30:09;;;;;;;;;9.00;7.00;;;;;22.11;100.00;100611.91;5068711;28;47707;-81
2022/09/03 03:32:38;;;;;;;;;9.33;7.00;;;;;22.11;100.00;100613.72;5059777;28;45665;-81
2022/09/03 03:35:05;;;;;;;;;10.00;8.00;;;;;22.08;100.00;100608.44;5060166;28;45417;-83
2022/09/03 03:37:31;;;;;;;;;8.00;6.67;;;;;22.04;100.00;100610.34;5059903;28;45249;-82
2022/09/03 03:39:56;;;;;;;;;10.33;9.33;;;;;22.07;100.00;100614.75;5076477;27;45738;-83
2022/09/03 03:42:22;;;;;;;;;8.67;7.33;;;;;22.07;100.00;100612.94;5066433;28;45308;-81
2022/09/03 03:44:47;;;;;;;;;8.33;8.00;;;;;22.06;100.00;100616.56;5076734;27;45464;-81
2022/09/03 03:47:15;;;;;;;;;9.67;7.67;;;;;22.05;100.00;100612.13;5086263;27;45358;-82
2022/09/03 03:49:41;;;;;;;;;6.33;6.33;;;;;22.04;100.00;100606.78;5079849;27;47943;-82
2022/09/03 03:52:06;;;;;;;;;8.00;8.00;;;;;22.04;100.00;100606.78;5096743;27;45745;-82
2022/09/03 03:54:32;;;;;;;;;7.33;6.67;;;;;22.03;100.00;100602.34;5080017;27;45504;-85
2022/09/03 03:56:57;;;;;;;;;9.00;9.00;;;;;22.00;100.00;100603.38;5079518;27;51367;-81
2022/09/03 03:59:23;;;;;;;;;9.00;9.00;;;;;22.00;100.00;100606.06;5097848;27;45770;-80
2022/09/03 04:01:49;;;;;;;;;10.67;8.33;;;;;21.98;100.00;100605.22;5079454;27;45318;-81
2022/09/03 04:04:15;;;;;;;;;7.00;7.00;;;;;21.96;100.00;100602.59;5079740;27;45344;-81
2022/09/03 04:06:41;;;;;;;;;12.00;11.00;;;;;21.96;100.00;100599.91;5095991;27;45629;-84
2022/09/03 04:09:06;;;;;;;;;7.33;7.33;;;;;21.94;100.00;100601.81;5096457;27;48351;-85
2022/09/03 04:11:31;;;;;;;;;8.33;8.33;;;;;21.94;100.00;100604.50;5096151;27;55003;-85
2022/09/03 04:13:57;;;;;;;;;9.67;8.33;;;;;21.93;100.00;100601.84;5096584;27;45402;-81
2022/09/03 04:16:24;;;;;;;;;10.33;7.33;;;;;21.93;100.00;100600.03;5096788;27;45649;-81
2022/09/03 04:18:50;;;;;;;;;8.67;7.00;;;;;21.93;100.00;100605.41;5096461;27;47389;-82
2022/09/03 04:21:18;;;;;;;;;11.67;10.00;;;;;21.91;100.00;100609.97;5096536;27;45528;-81
2022/09/03 04:23:45;;;;;;;;;8.33;8.33;;;;;21.91;100.00;100601.03;5097653;27;45563;-81
2022/09/03 04:26:15;;;;;;;;;10.00;10.00;;;;;21.93;100.00;100610.78;5096457;27;45247;-81
2022/09/03 04:28:41;;;;;;;;;5.33;5.00;;;;;21.92;100.00;100614.41;5096064;27;47049;-81
2022/09/03 04:31:08;;;;;;;;;10.33;9.67;;;;;21.89;100.00;100601.13;5076780;27;45902;-84
2022/09/03 04:33:34;;;;;;;;;8.00;8.00;;;;;21.92;100.00;100611.72;5079338;27;45308;-81
2022/09/03 04:36:15;;;;;;;;;10.00;10.00;;;;;21.93;100.00;100610.78;5096337;27;45335;-82
2022/09/03 04:38:42;;;;;;;;;11.00;11.00;;;;;21.91;100.00;100612.66;5077306;27;47931;-82
2022/09/03 04:41:10;;;;;;;;;8.67;8.67;;;;;21.91;100.00;100611.78;5069321;22;46608;-81
2022/09/03 04:43:35;;;;;;;;;10.33;9.33;;;;;21.89;100.00;100610.97;5056598;28;45512;-85
2022/09/03 04:46:04;;;;;;;;;9.00;8.33;;;;;21.87;100.00;100607.47;5058205;28;45537;-82
2022/09/03 04:48:31;;;;;;;;;9.00;9.00;;;;;21.87;100.00;100610.16;5054031;28;45950;-79
2022/09/03 04:51:06;;;;;;;;;8.67;8.00;;;;;21.84;100.00;100618.31;5041554;28;46092;-83
2022/09/03 04:53:37;;;;;;;;;10.00;10.00;;;;;21.76;100.00;100618.63;5058814;28;45398;-80
2022/09/03 04:56:02;;;;;;;;;10.33;10.33;;;;;21.68;100.00;100618.06;5042599;28;46223;-79
2022/09/03 04:58:28;;;;;;;;;12.33;10.33;;;;;21.63;100.00;100610.19;5040915;28;45407;-81
2022/09/03 05:00:53;;;;;;;;;11.00;10.67;;;;;21.63;100.00;100612.00;5076701;28;45184;-81
2022/09/03 05:03:20;;;;;;;;;11.00;11.00;;;;;21.61;100.00;100613.84;5041680;28;45370;-81
2022/09/03 05:05:56;;;;;;;;;10.00;10.00;;;;;21.58;100.00;100605.91;5059287;28;45429;-81
2022/09/03 05:08:21;;;;;;;;;13.67;10.00;;;;;21.58;100.00;100606.78;5058603;28;48716;-83
2022/09/03 05:10:48;;;;;;;;;10.33;9.67;;;;;21.59;100.00;100615.72;5058325;28;46010;-81
2022/09/03 05:13:13;;;;;;;;;9.33;9.33;;;;;21.60;100.00;100617.47;5058548;28;45503;-81
2022/09/03 05:15:39;;;;;;;;;10.67;10.33;;;;;21.55;100.00;100604.22;5047599;28;45568;-80
2022/09/03 05:18:04;;;;;;;;;9.33;9.33;;;;;21.57;100.00;100612.19;5069668;28;45622;-82
2022/09/03 05:20:31;;;;;;;;;10.67;9.00;;;;;21.59;100.00;100610.34;5045952;28;46163;-83
2022/09/03 05:23:00;;;;;;;;;9.67;9.67;;;;;21.61;100.00;100616.53;5045375;28;45381;-80
2022/09/03 05:25:26;;;;;;;;;10.00;10.00;;;;;21.61;100.00;100617.41;5058650;28;45458;-82
2022/09/03 05:27:53;;;;;;;;;9.67;9.67;;;;;21.63;100.00;100626.31;5061196;28;45465;-79
2022/09/03 05:30:21;;;;;;;;;11.33;10.00;;;;;21.64;100.00;100620.00;5061988;28;45312;-81
2022/09/03 05:32:47;;;;;;;;;9.00;9.00;;;;;21.63;100.00;100620.94;5045571;28;45214;-80
2022/09/03 05:35:12;;;;;;;;;12.67;12.67;;;;;21.65;100.00;100626.25;5061900;28;45677;-82
2022/09/03 05:37:38;;;;;;;;;9.33;9.33;;;;;21.63;100.00;100623.63;5061280;28;48702;-83
2022/09/03 05:40:04;;;;;;;;;10.00;8.00;;;;;21.65;100.00;100626.25;5045002;28;45275;-83
2022/09/03 05:42:30;;;;;;;;;8.00;8.00;;;;;21.64;100.00;100624.50;5044952;28;45547;-84
2022/09/03 05:44:56;;;;;;;;;12.33;10.00;;;;;21.67;100.00;100635.97;5045186;28;45326;-83
2022/09/03 05:47:21;;;;;;;;;10.67;10.67;;;;;21.68;100.00;100626.13;5042171;28;47557;-81
2022/09/03 05:49:46;;;;;;;;;10.67;9.33;;;;;21.69;100.00;100627.88;5047199;28;52293;-80
2022/09/03 05:52:12;;;;;;;;;10.67;10.67;;;;;21.70;100.00;100630.50;5052295;28;45596;-85
2022/09/03 05:54:38;;;;;;;;;12.67;11.33;;;;;21.71;100.00;100634.06;5055512;28;45345;-78
2022/09/03 05:57:03;;;;;;;;;10.33;10.33;;;;;21.70;100.00;100630.50;5054896;28;46645;-77
2022/09/03 05:59:29;;;;;;;;;10.67;10.33;;;;;21.75;100.00;100646.47;5075062;28;45529;-77
2022/09/03 06:01:54;;;;;;;;;12.33;11.00;;;;;21.76;100.00;100645.50;5077312;28;45645;-78
2022/09/03 06:04:20;;;;;;;;;9.33;9.33;;;;;21.77;100.00;100649.94;5078417;28;45447;-77
2022/09/03 06:06:46;;;;;;;;;9.67;9.67;;;;;21.78;100.00;100646.31;5076230;28;45867;-75
2022/09/03 06:09:15;;;;;;;;;10.67;9.67;;;;;21.83;100.00;100656.91;5078498;28;45333;-76
2022/09/03 06:11:41;;;;;;;;;13.00;10.67;;;;;21.84;100.00;100653.28;5056692;28;45291;-75
2022/09/03 06:14:09;;;;;;;;;10.67;9.00;;;;;21.86;100.00;100656.78;5078669;28;45613;-76
2022/09/03 06:16:37;;;;;;;;;12.33;11.00;;;;;21.87;100.00;100658.53;5075597;28;46685;-75
2022/09/03 06:19:08;;;;;;;;;10.33;10.00;;;;;21.89;100.00;100664.72;5068705;28;45504;-75
2022/09/03 06:21:35;;;;;;;;;12.67;12.67;;;;;21.90;100.00;100666.50;5054428;28;45354;-77
2022/09/03 06:24:01;;;;;;;;;12.33;8.67;;;;;21.90;100.00;100659.31;5042075;28;45407;-76
2022/09/03 06:26:27;;;;;;;;;10.67;10.67;;;;;21.93;100.00;100674.44;5076003;28;46725;-77
2022/09/03 06:28:53;;;;;;;;;14.33;9.67;;;;;21.87;100.00;100675.53;5069677;28;45514;-76
2022/09/03 06:31:19;;;;;;;;;12.67;11.67;;;;;21.88;100.00;100682.66;5052316;28;46246;-76
2022/09/03 06:33:46;;;;;;;;;10.67;10.67;;;;;21.85;100.00;100677.44;5063602;28;45501;-77
2022/09/03 06:36:17;;;;;;;;;13.00;13.00;;;;;21.78;100.00;100675.88;5063733;28;47645;-77
2022/09/03 06:38:44;;;;;;;;;14.00;12.00;;;;;21.76;100.00;100675.06;5077699;28;45460;-77
2022/09/03 06:41:10;;;;;;;;;13.00;13.00;;;;;21.76;100.00;100683.16;5072879;28;45604;-75
2022/09/03 06:43:38;;;;;;;;;10.00;10.00;;;;;21.73;100.00;100672.50;5060783;28;45437;-75
2022/09/03 06:46:15;;;;;;;;;10.67;10.67;;;;;21.76;100.00;100675.06;5056463;28;46689;-76
2022/09/03 06:48:41;;;;;;;;;14.33;13.00;;;;;21.78;100.00;100677.69;5053276;28;45476;-73
2022/09/03 06:51:11;;;;;;;;;11.33;10.33;;;;;21.83;100.00;100681.97;5064516;28;45477;-75
2022/09/03 06:53:38;;;;;;;;;14.00;12.67;;;;;21.89;100.00;100687.13;5060045;28;45384;-76
2022/09/03 06:56:06;;;;;;;;;11.00;11.00;;;;;21.96;100.00;100683.25;5057060;28;46733;-76
2022/09/03 06:58:37;;;;;;;;;10.00;8.67;;;;;22.02;100.00;100683.97;5074939;28;45342;-76
2022/09/03 07:01:06;;;;;;;;;14.33;10.00;;;;;22.02;100.00;100683.97;5078838;28;45423;-75
2022/09/03 07:03:32;;;;;;;;;13.33;11.67;;;;;22.02;100.00;100689.34;5078761;28;45581;-75
2022/09/03 07:06:05;;;;;;;;;12.00;12.00;;;;;22.01;100.00;100683.09;5078560;28;45797;-76
2022/09/03 07:08:32;;;;;;;;;11.67;11.67;;;;;22.00;100.00;100683.13;5078008;28;45558;-76
2022/09/03 07:11:08;;;;;;;;;11.00;11.00;;;;;21.97;100.00;100682.31;5077727;28;45246;-76
2022/09/03 07:13:45;;;;;;;;;14.67;13.33;;;;;21.96;100.00;100679.72;5043903;28;45359;-75
2022/09/03 07:16:35;;;;;;;;;12.67;12.67;;;;;21.95;100.00;100684.22;5054863;28;47536;-75
2022/09/03 07:19:02;;;;;;;;;13.33;13.33;;;;;21.90;100.00;100675.44;5077601;28;45305;-73
2022/09/03 07:21:29;;;;;;;;;12.33;12.33;;;;;21.87;100.00;100680.91;5071446;28;45509;-75
2022/09/03 07:23:56;;;;;;;;;13.33;12.67;;;;;21.85;100.00;100679.25;5051830;28;45680;-74
2022/09/03 07:26:24;;;;;;;;;10.67;10.67;;;;;21.83;100.00;100683.78;5075191;28;46646;-74
2022/09/03 07:28:49;;;;;;;;;12.33;12.33;;;;;21.84;100.00;100693.59;5056175;28;45502;-74
2022/09/03 07:31:19;;;;;;;;;11.33;11.00;;;;;21.84;100.00;100697.19;5076329;28;45420;-73
2022/09/03 07:33:45;;;;;;;;;11.33;10.33;;;;;21.83;100.00;100690.03;5056432;28;45472;-74
2022/09/03 07:36:13;;;;;;;;;14.67;11.67;;;;;21.85;100.00;100696.25;5073992;28;46491;-74
2022/09/03 07:38:40;;;;;;;;;12.00;12.00;;;;;21.85;100.00;100701.63;5075670;28;45242;-73
2022/09/03 07:41:07;;;;;;;;;12.67;10.67;;;;;21.83;100.00;100706.16;5073654;28;45122;-75
2022/09/03 07:43:35;;;;;;;;;10.00;10.00;;;;;21.85;100.00;100711.50;5073018;28;45559;-74
2022/09/03 07:46:01;;;;;;;;;10.00;9.00;;;;;21.83;100.00;100702.59;5071937;28;45596;-76
2022/09/03 07:48:26;;;;;;;;;12.00;11.00;;;;;21.84;100.00;100705.25;5073775;28;45505;-76
2022/09/03 07:50:53;;;;;;;;;9.67;8.33;;;;;21.87;100.00;100706.94;5053430;28;45574;-73
2022/09/03 07:53:21;;;;;;;;;12.00;10.33;;;;;21.90;100.00;100704.13;5052858;28;46751;-75
2022/09/03 07:55:47;;;;;;;;;11.33;11.33;;;;;21.88;100.00;100704.16;5075377;28;46508;-73
2022/09/03 07:58:13;;;;;;;;;12.33;10.67;;;;;21.92;100.00;100710.31;5076270;28;45359;-75
2022/09/03 08:00:39;;;;;;;;;11.00;11.00;;;;;21.94;100.00;100708.44;5076286;28;45552;-77
2022/09/03 08:03:07;;;;;;;;;11.00;9.00;;;;;21.96;100.00;100710.16;5051168;28;45300;-76
2022/09/03 08:05:34;;;;;;;;;12.00;12.00;;;;;21.97;100.00;100709.22;5075008;28;45966;-76
2022/09/03 08:08:00;;;;;;;;;10.33;10.33;;;;;22.01;100.00;100712.66;5058677;28;45500;-74
2022/09/03 08:10:29;;;;;;;;;10.33;8.67;;;;;22.08;100.00;100716.88;5075817;28;45532;-76
2022/09/03 08:12:55;;;;;;;;;9.67;9.67;;;;;22.17;100.00;100715.69;5076376;28;45473;-75
2022/09/03 08:15:20;;;;;;;;;9.00;9.00;;;;;22.30;100.00;100725.00;5052884;27;47557;-75
2022/09/03 08:20:36;;;;;;;;;11.33;10.00;;;;;22.48;100.00;100724.28;5030542;28;45588;-76
2022/09/03 08:23:02;;;;;;;;;8.33;8.33;;;;;22.53;100.00;100725.91;5035110;28;45895;-76
2022/09/03 08:25:28;;;;;;;;;8.00;8.00;;;;;22.52;100.00;100725.03;5035915;28;45983;-76
2022/09/03 08:27:53;;;;;;;;;10.00;10.00;;;;;22.55;100.00;100729.44;5035321;28;45303;-77
2022/09/03 08:30:20;;;;;;;;;10.00;8.00;;;;;22.55;100.00;100730.31;5035039;28;45460;-77
2022/09/03 08:32:46;;;;;;;;;10.00;10.00;;;;;22.61;100.00;100742.63;5035954;28;45477;-75
2022/09/03 08:35:11;;;;;;;;;7.67;7.67;;;;;22.66;100.00;100740.63;5033933;28;47571;-76
2022/09/03 08:37:38;;;;;;;;;7.33;7.33;;;;;22.69;100.00;100745.88;5031426;28;45493;-76
2022/09/03 08:40:04;;;;;;;;;8.00;8.00;;;;;22.70;100.00;100735.06;5031976;28;45420;-75
2022/09/03 08:42:51;;;;;;;;;6.33;5.33;;;;;22.73;100.00;100743.00;5032631;28;45477;-75
2022/09/03 08:45:18;;;;;;;;;10.00;7.00;;;;;22.77;100.00;100745.59;5031478;28;46705;-77
2022/09/03 08:47:51;;;;;;;;;6.00;6.00;;;;;22.79;100.00;100746.38;5017068;28;45438;-75
2022/09/03 08:50:26;;;;;;;;;9.00;6.33;;;;;22.82;100.00;100749.84;5032276;28;45356;-75
2022/09/03 08:52:59;;;;;;;;;7.00;7.00;;;;;22.86;100.00;100753.28;5032017;28;45356;-75
2022/09/03 08:55:26;;;;;;;;;8.00;6.33;;;;;22.88;100.00;100746.03;5032369;28;45617;-77
2022/09/03 08:57:58;;;;;;;;;7.33;6.00;;;;;22.93;100.00;100747.59;5012003;28;46911;-76
2022/09/03 09:00:24;;;;;;;;;5.33;5.33;;;;;23.02;100.00;100751.75;5012216;28;45489;-77
2022/09/03 09:03:11;;;;;;;;;5.67;5.67;;;;;23.12;100.00;100752.25;5030969;28;62220;-74
2022/09/03 09:05:45;;;;;;;;;9.00;7.00;;;;;23.29;100.00;100755.09;5030822;28;47337;-75
2022/09/03 09:08:20;;;;;;;;;5.00;5.00;;;;;23.45;100.00;100760.69;5013376;28;45617;-74
2022/09/03 09:11:16;;;;;;;;;5.00;5.00;;;;;23.63;100.00;100754.50;5002251;28;46766;-77
2022/09/03 09:14:10;;;;;;;;;6.00;6.00;;;;;23.87;100.00;100749.84;4982917;28;45401;-74
2022/09/03 09:16:54;;;;;;;;;5.00;3.33;;;;;24.02;100.00;100748.25;5015466;28;45296;-76
2022/09/03 09:19:28;;;;;;;;;7.67;4.33;;;;;24.07;100.00;100756.13;5044623;28;45429;-75
2022/09/03 09:22:09;;;;;;;;;4.00;4.00;;;;;24.05;100.00;100746.31;5053505;28;45348;-78
2022/09/03 09:24:41;;;;;;;;;4.67;4.67;;;;;24.09;100.00;100748.88;5053837;28;45128;-74
2022/09/03 09:27:07;;;;;;;;;3.00;3.00;;;;;24.13;100.00;100745.06;5036982;28;46095;-74
2022/09/03 09:29:37;;;;;;;;;3.00;3.00;;;;;24.25;100.00;100745.38;5054956;28;45380;-75
2022/09/03 09:32:06;;;;;;;;;5.67;5.00;;;;;24.35;100.00;100745.84;5030406;28;45598;-74
2022/09/03 09:34:35;;;;;;;;;4.33;4.33;;;;;24.40;100.00;100748.34;5054472;28;45592;-76
2022/09/03 09:37:03;;;;;;;;;4.33;4.33;;;;;24.45;100.00;100752.56;5033881;28;48285;-74
2022/09/03 09:39:28;;;;;;;;;4.00;4.00;;;;;24.46;100.00;100754.31;5031330;28;45420;-73
2022/09/03 09:41:58;;;;;;;;;3.00;3.00;;;;;24.49;100.00;100746.06;5046717;28;49538;-74
2022/09/03 09:44:25;;;;;;;;;5.00;4.00;;;;;24.54;100.00;100740.44;5050521;28;45502;-74
2022/09/03 09:47:02;;;;;;;;;4.67;3.00;;;;;24.69;100.00;100752.31;5046649;28;46717;-74
2022/09/03 09:49:34;;;;;;;;;4.00;4.00;;;;;24.80;100.00;100753.53;5051387;28;45472;-76
2022/09/03 09:52:06;;;;;;;;;4.00;3.00;;;;;24.91;100.00;100746.72;5033199;28;45588;-74
2022/09/03 09:54:32;;;;;;;;;3.00;3.00;;;;;25.00;100.00;100744.44;5031066;28;45548;-76
2022/09/03 09:57:00;;;;;;;;;4.00;4.00;;;;;25.06;100.00;100749.56;5054876;28;47222;-73
2022/09/03 09:59:26;;;;;;;;;4.33;4.33;;;;;25.16;100.00;100754.53;5051096;28;45493;-79
2022/09/03 10:02:03;;;;;;;;;6.00;4.33;;;;;25.20;100.00;100748.88;5053739;28;52691;-74
2022/09/03 10:04:30;;;;;;;;;4.33;4.33;;;;;25.24;100.00;100746.88;5033437;28;45603;-74
2022/09/03 10:07:04;;;;;;;;;4.67;4.67;;;;;25.25;100.00;100748.66;5048687;28;46027;-77
2022/09/03 10:09:31;;;;;;;;;6.00;6.00;;;;;25.26;100.00;100750.41;5057048;28;45373;-75
2022/09/03 10:12:25;;;;;;;;;5.00;3.67;;;;;25.25;100.00;100759.47;5051449;28;45425;-74
2022/09/03 10:15:18;;;;;;;;;4.00;4.00;;;;;25.22;100.00;100760.47;5041559;28;45467;-74
2022/09/03 10:18:05;;;;;;;;;5.67;5.67;;;;;25.19;100.00;100759.75;5035127;28;46423;-74
2022/09/03 10:20:43;;;;;;;;;6.00;5.00;;;;;25.16;100.00;100760.81;5033641;28;45413;-74
2022/09/03 10:23:19;;;;;;;;;5.33;4.00;;;;;25.17;100.00;100762.53;5013890;28;45501;-75
2022/09/03 10:26:08;;;;;;;;;5.00;5.00;;;;;25.18;100.00;100777.78;5033685;28;45354;-74
2022/09/03 10:28:41;;;;;;;;;6.67;4.33;;;;;25.15;100.00;100777.09;5019458;28;45490;-77
2022/09/03 10:31:35;;;;;;;;;6.00;4.00;;;;;25.08;100.00;100780.09;5020105;28;45398;-75
2022/09/03 10:34:19;;;;;;;;;1.00;1.00;;;;;25.04;100.00;100783.00;5033081;28;45330;-78
2022/09/03 10:37:29;;;;;;;;;3.67;3.33;;;;;24.98;100.00;100778.78;5034062;28;45485;-74
2022/09/03 10:40:36;;;;;;;;;8.67;5.00;;;;;24.98;100.00;100778.78;4985580;28;46436;-74
2022/09/03 10:43:22;;;;;;;;;4.67;4.67;;;;;24.98;100.00;100783.28;4982289;28;45544;-75
2022/09/03 10:46:01;;;;;;;;;5.00;5.00;;;;;24.93;100.00;100775.44;5033637;28;45533;-74
2022/09/03 10:48:52;;;;;;;;;5.33;4.67;;;;;24.95;100.00;100780.75;5038349;28;45371;-75
2022/09/03 10:51:42;;;;;;;;;4.33;4.33;;;;;24.98;100.00;100785.97;5016505;28;45763;-73
2022/09/03 10:54:38;;;;;;;;;4.33;4.33;;;;;24.93;100.00;100794.34;5019790;28;45475;-74
2022/09/03 10:57:25;;;;;;;;;5.00;5.00;;;;;24.85;100.00;100787.56;5032210;28;45365;-74
2022/09/03 11:00:09;;;;;;;;;7.67;6.00;;;;;24.89;100.00;100789.16;5037326;28;45647;-76
2022/09/03 11:03:12;;;;;;;;;5.67;5.33;;;;;24.92;100.00;100795.28;5017995;28;47555;-76
2022/09/03 11:06:03;;;;;;;;;3.33;3.33;;;;;24.98;100.00;100794.09;5036385;28;46531;-78
2022/09/03 11:08:33;;;;;;;;;6.00;3.33;;;;;25.03;100.00;100792.91;5033393;28;45477;-76
2022/09/03 11:11:20;;;;;;;;;4.67;4.67;;;;;25.10;100.00;100785.44;5035594;28;46031;-74
2022/09/03 11:13:47;;;;;;;;;3.67;3.33;;;;;25.14;99.25;100781.63;5017987;28;46579;-72
2022/09/03 11:16:19;;;;;;;;;5.00;5.00;;;;;25.11;99.95;100784.47;5018553;28;45483;-74
2022/09/03 11:18:51;;;;;;;;;5.33;5.33;;;;;25.03;99.83;100776.69;5022416;28;45520;-73
2022/09/03 11:21:21;;;;;;;;;6.67;5.00;;;;;25.03;100.00;100792.03;5037103;28;45875;-74
2022/09/03 11:23:51;;;;;;;;;5.00;5.00;;;;;24.97;99.33;100789.66;5034665;28;46426;-78
2022/09/03 11:26:18;;;;;;;;;6.00;6.00;;;;;24.88;99.06;100782.88;5031914;28;45543;-73
2022/09/03 11:28:54;;;;;;;;;4.67;4.00;;;;;24.79;98.75;100789.59;5035045;28;59635;-74
2022/09/03 11:31:58;;;;;;;;;7.67;6.00;;;;;24.71;99.15;100786.38;5033077;28;45387;-74
2022/09/03 11:34:26;;;;;;;;;5.00;5.00;;;;;24.72;100.00;100795.41;5025099;28;47382;-74
2022/09/03 11:37:04;;;;;;;;;6.00;6.00;;;;;24.66;100.00;100783.06;5033483;28;45600;-78
2022/09/03 11:39:39;;;;;;;;;6.00;4.33;;;;;24.66;100.00;100787.56;5034455;28;45281;-76
2022/09/03 11:42:49;;;;;;;;;5.00;5.00;;;;;24.72;100.00;100790.00;5034348;28;45595;-75